sensor_id;sensor_type;location;lat;lon;timestamp;P1;durP1;ratioP1;P2;durP2;ratioP2
13927;SDS011;7036;50.834;4.718;2023-04-01T00:01:33;1.63;;;0.93;;
13927;SDS011;7036;50.834;4.718;2023-04-01T00:04:02;3.92;;;1.60;;
13927;SDS011;7036;50.834;4.718;2023-04-01T00:06:29;1.70;;;1.07;;
13927;SDS011;7036;50.834;4.718;2023-04-01T00:08:57;2.42;;;1.20;;
13927;SDS011;7036;50.834;4.718;2023-04-01T00:11:24;1.88;;;1.23;;
13927;SDS011;7036;50.834;4.718;2023-04-01T00:13:52;2.10;;;1.27;;
13927;SDS011;7036;50.834;4.718;2023-04-01T00:16:19;1.83;;;1.40;;
13927;SDS011;7036;50.834;4.718;2023-04-01T00:18:47;2.58;;;1.30;;
13927;SDS011;7036;50.834;4.718;2023-04-01T00:21:14;2.08;;;1.05;;
13927;SDS011;7036;50.834;4.718;2023-04-01T00:23:42;1.58;;;1.20;;
13927;SDS011;7036;50.834;4.718;2023-04-01T00:26:11;2.00;;;1.23;;
13927;SDS011;7036;50.834;4.718;2023-04-01T00:28:37;1.77;;;1.03;;
13927;SDS011;7036;50.834;4.718;2023-04-01T00:31:05;4.40;;;1.30;;
13927;SDS011;7036;50.834;4.718;2023-04-01T00:33:34;3.00;;;1.50;;
13927;SDS011;7036;50.834;4.718;2023-04-01T00:36:10;3.87;;;1.20;;
13927;SDS011;7036;50.834;4.718;2023-04-01T00:38:37;2.93;;;1.40;;
13927;SDS011;7036;50.834;4.718;2023-04-01T00:41:03;2.43;;;1.27;;
13927;SDS011;7036;50.834;4.718;2023-04-01T00:43:30;1.85;;;1.00;;
13927;SDS011;7036;50.834;4.718;2023-04-01T00:45:58;2.38;;;1.17;;
13927;SDS011;7036;50.834;4.718;2023-04-01T00:48:30;1.48;;;1.02;;
13927;SDS011;7036;50.834;4.718;2023-04-01T00:51:16;2.63;;;1.50;;
13927;SDS011;7036;50.834;4.718;2023-04-01T00:53:43;2.10;;;1.00;;
13927;SDS011;7036;50.834;4.718;2023-04-01T00:56:17;2.00;;;1.17;;
13927;SDS011;7036;50.834;4.718;2023-04-01T00:58:45;2.20;;;1.20;;
13927;SDS011;7036;50.834;4.718;2023-04-01T01:01:10;1.43;;;1.07;;
13927;SDS011;7036;50.834;4.718;2023-04-01T01:03:38;1.42;;;0.90;;
13927;SDS011;7036;50.834;4.718;2023-04-01T01:06:10;2.33;;;1.38;;
13927;SDS011;7036;50.834;4.718;2023-04-01T01:08:46;1.67;;;1.03;;
13927;SDS011;7036;50.834;4.718;2023-04-01T01:11:11;1.40;;;0.50;;
13927;SDS011;7036;50.834;4.718;2023-04-01T01:13:43;1.07;;;0.87;;
13927;SDS011;7036;50.834;4.718;2023-04-01T01:16:12;2.07;;;1.10;;
13927;SDS011;7036;50.834;4.718;2023-04-01T01:18:46;1.08;;;0.85;;
13927;SDS011;7036;50.834;4.718;2023-04-01T01:37:47;2.17;;;1.20;;
13927;SDS011;7036;50.834;4.718;2023-04-01T01:40:14;3.50;;;1.13;;
13927;SDS011;7036;50.834;4.718;2023-04-01T01:42:43;1.75;;;0.95;;
13927;SDS011;7036;50.834;4.718;2023-04-01T01:45:09;1.13;;;0.80;;
13927;SDS011;7036;50.834;4.718;2023-04-01T01:47:36;1.95;;;0.90;;
13927;SDS011;7036;50.834;4.718;2023-04-01T01:50:04;2.75;;;1.13;;
13927;SDS011;7036;50.834;4.718;2023-04-01T01:52:31;4.30;;;0.80;;
13927;SDS011;7036;50.834;4.718;2023-04-01T01:54:58;1.00;;;0.80;;
13927;SDS011;7036;50.834;4.718;2023-04-01T01:57:28;1.55;;;0.95;;
13927;SDS011;7036;50.834;4.718;2023-04-01T01:59:54;1.48;;;1.08;;
13927;SDS011;7036;50.834;4.718;2023-04-01T02:02:21;1.02;;;0.82;;
13927;SDS011;7036;50.834;4.718;2023-04-01T02:04:47;0.98;;;0.80;;
13927;SDS011;7036;50.834;4.718;2023-04-01T02:07:18;1.80;;;0.80;;
13927;SDS011;7036;50.834;4.718;2023-04-01T02:09:43;1.55;;;0.88;;
13927;SDS011;7036;50.834;4.718;2023-04-01T02:12:12;0.98;;;0.70;;
13927;SDS011;7036;50.834;4.718;2023-04-01T02:14:52;1.05;;;0.90;;
13927;SDS011;7036;50.834;4.718;2023-04-01T02:17:18;1.93;;;0.83;;
13927;SDS011;7036;50.834;4.718;2023-04-01T02:19:57;1.48;;;1.00;;
13927;SDS011;7036;50.834;4.718;2023-04-01T02:22:22;2.33;;;1.10;;
13927;SDS011;7036;50.834;4.718;2023-04-01T02:24:50;1.53;;;1.00;;
13927;SDS011;7036;50.834;4.718;2023-04-01T02:27:18;1.73;;;0.90;;
13927;SDS011;7036;50.834;4.718;2023-04-01T02:29:45;1.77;;;0.73;;
13927;SDS011;7036;50.834;4.718;2023-04-01T02:32:12;1.05;;;0.90;;
13927;SDS011;7036;50.834;4.718;2023-04-01T02:34:41;1.30;;;0.80;;
13927;SDS011;7036;50.834;4.718;2023-04-01T02:37:08;2.27;;;0.70;;
13927;SDS011;7036;50.834;4.718;2023-04-01T02:39:35;1.25;;;0.75;;
13927;SDS011;7036;50.834;4.718;2023-04-01T02:42:02;1.23;;;0.80;;
13927;SDS011;7036;50.834;4.718;2023-04-01T02:44:30;3.53;;;0.80;;
13927;SDS011;7036;50.834;4.718;2023-04-01T02:46:58;1.58;;;0.85;;
13927;SDS011;7036;50.834;4.718;2023-04-01T02:49:25;0.80;;;0.60;;
13927;SDS011;7036;50.834;4.718;2023-04-01T02:51:52;1.15;;;0.80;;
13927;SDS011;7036;50.834;4.718;2023-04-01T02:54:19;1.02;;;0.75;;
13927;SDS011;7036;50.834;4.718;2023-04-01T02:56:47;1.88;;;0.70;;
13927;SDS011;7036;50.834;4.718;2023-04-01T02:59:14;1.75;;;1.10;;
13927;SDS011;7036;50.834;4.718;2023-04-01T03:01:42;2.75;;;1.00;;
13927;SDS011;7036;50.834;4.718;2023-04-01T03:04:09;1.58;;;0.80;;
13927;SDS011;7036;50.834;4.718;2023-04-01T03:06:37;0.50;;;0.50;;
13927;SDS011;7036;50.834;4.718;2023-04-01T03:09:05;2.70;;;0.90;;
13927;SDS011;7036;50.834;4.718;2023-04-01T03:11:32;1.27;;;0.90;;
13927;SDS011;7036;50.834;4.718;2023-04-01T03:14:00;2.42;;;0.93;;
13927;SDS011;7036;50.834;4.718;2023-04-01T03:16:27;1.35;;;0.95;;
13927;SDS011;7036;50.834;4.718;2023-04-01T03:18:56;1.35;;;0.93;;
13927;SDS011;7036;50.834;4.718;2023-04-01T03:21:22;1.20;;;0.70;;
13927;SDS011;7036;50.834;4.718;2023-04-01T03:23:49;2.28;;;1.20;;
13927;SDS011;7036;50.834;4.718;2023-04-01T03:26:17;1.85;;;1.00;;
13927;SDS011;7036;50.834;4.718;2023-04-01T03:28:44;4.18;;;1.13;;
13927;SDS011;7036;50.834;4.718;2023-04-01T03:31:11;1.15;;;1.00;;
13927;SDS011;7036;50.834;4.718;2023-04-01T03:33:38;1.55;;;0.90;;
13927;SDS011;7036;50.834;4.718;2023-04-01T03:36:06;0.95;;;0.88;;
13927;SDS011;7036;50.834;4.718;2023-04-01T03:38:34;2.97;;;0.90;;
13927;SDS011;7036;50.834;4.718;2023-04-01T03:41:01;1.55;;;1.05;;
13927;SDS011;7036;50.834;4.718;2023-04-01T03:43:29;2.88;;;0.90;;
13927;SDS011;7036;50.834;4.718;2023-04-01T03:45:56;2.13;;;1.15;;
13927;SDS011;7036;50.834;4.718;2023-04-01T03:48:24;1.50;;;0.93;;
13927;SDS011;7036;50.834;4.718;2023-04-01T03:50:51;0.70;;;0.63;;
13927;SDS011;7036;50.834;4.718;2023-04-01T03:53:19;1.98;;;0.88;;
13927;SDS011;7036;50.834;4.718;2023-04-01T03:55:46;0.85;;;0.80;;
13927;SDS011;7036;50.834;4.718;2023-04-01T03:58:14;1.10;;;1.00;;
13927;SDS011;7036;50.834;4.718;2023-04-01T04:00:41;1.02;;;0.77;;
13927;SDS011;7036;50.834;4.718;2023-04-01T04:03:08;1.25;;;0.93;;
13927;SDS011;7036;50.834;4.718;2023-04-01T04:05:35;1.23;;;1.10;;
13927;SDS011;7036;50.834;4.718;2023-04-01T04:08:03;3.08;;;1.10;;
13927;SDS011;7036;50.834;4.718;2023-04-01T04:10:30;1.77;;;1.00;;
13927;SDS011;7036;50.834;4.718;2023-04-01T04:12:57;2.90;;;1.38;;
13927;SDS011;7036;50.834;4.718;2023-04-01T04:15:24;1.73;;;0.95;;
13927;SDS011;7036;50.834;4.718;2023-04-01T04:17:52;2.47;;;1.00;;
13927;SDS011;7036;50.834;4.718;2023-04-01T04:20:20;1.10;;;0.90;;
13927;SDS011;7036;50.834;4.718;2023-04-01T04:22:47;2.67;;;0.90;;
13927;SDS011;7036;50.834;4.718;2023-04-01T04:25:14;1.27;;;1.17;;
13927;SDS011;7036;50.834;4.718;2023-04-01T04:27:43;1.55;;;1.27;;
13927;SDS011;7036;50.834;4.718;2023-04-01T04:30:10;1.58;;;1.05;;
13927;SDS011;7036;50.834;4.718;2023-04-01T04:32:38;3.88;;;1.10;;
13927;SDS011;7036;50.834;4.718;2023-04-01T04:35:05;1.95;;;1.20;;
13927;SDS011;7036;50.834;4.718;2023-04-01T04:37:32;2.72;;;1.27;;
13927;SDS011;7036;50.834;4.718;2023-04-01T04:40:00;2.17;;;1.20;;
13927;SDS011;7036;50.834;4.718;2023-04-01T04:42:28;1.42;;;0.98;;
13927;SDS011;7036;50.834;4.718;2023-04-01T04:44:56;2.35;;;1.33;;
13927;SDS011;7036;50.834;4.718;2023-04-01T04:47:24;2.85;;;1.30;;
13927;SDS011;7036;50.834;4.718;2023-04-01T04:49:52;2.13;;;1.10;;
13927;SDS011;7036;50.834;4.718;2023-04-01T04:52:19;2.17;;;1.20;;
13927;SDS011;7036;50.834;4.718;2023-04-01T04:54:47;2.58;;;1.33;;
13927;SDS011;7036;50.834;4.718;2023-04-01T04:57:15;2.20;;;1.38;;
13927;SDS011;7036;50.834;4.718;2023-04-01T04:59:43;1.55;;;1.30;;
13927;SDS011;7036;50.834;4.718;2023-04-01T05:02:11;1.58;;;1.05;;
13927;SDS011;7036;50.834;4.718;2023-04-01T05:04:38;2.50;;;1.00;;
13927;SDS011;7036;50.834;4.718;2023-04-01T05:07:05;3.20;;;1.30;;
13927;SDS011;7036;50.834;4.718;2023-04-01T05:09:32;3.92;;;1.30;;
13927;SDS011;7036;50.834;4.718;2023-04-01T05:11:59;1.55;;;1.15;;
13927;SDS011;7036;50.834;4.718;2023-04-01T05:14:27;1.23;;;1.00;;
13927;SDS011;7036;50.834;4.718;2023-04-01T05:16:55;3.38;;;1.10;;
13927;SDS011;7036;50.834;4.718;2023-04-01T05:19:22;2.60;;;0.90;;
13927;SDS011;7036;50.834;4.718;2023-04-01T05:21:49;2.33;;;1.00;;
13927;SDS011;7036;50.834;4.718;2023-04-01T05:24:17;3.13;;;1.23;;
13927;SDS011;7036;50.834;4.718;2023-04-01T05:26:45;2.90;;;1.08;;
13927;SDS011;7036;50.834;4.718;2023-04-01T05:29:12;2.97;;;1.13;;
13927;SDS011;7036;50.834;4.718;2023-04-01T05:31:40;2.08;;;1.00;;
13927;SDS011;7036;50.834;4.718;2023-04-01T05:34:07;1.83;;;1.20;;
13927;SDS011;7036;50.834;4.718;2023-04-01T05:36:35;1.75;;;1.08;;
13927;SDS011;7036;50.834;4.718;2023-04-01T05:39:02;1.73;;;1.00;;
13927;SDS011;7036;50.834;4.718;2023-04-01T05:41:30;1.38;;;1.00;;
13927;SDS011;7036;50.834;4.718;2023-04-01T05:43:57;1.70;;;1.20;;
13927;SDS011;7036;50.834;4.718;2023-04-01T05:46:24;1.05;;;0.90;;
13927;SDS011;7036;50.834;4.718;2023-04-01T05:48:52;1.17;;;0.90;;
13927;SDS011;7036;50.834;4.718;2023-04-01T05:51:19;0.98;;;0.88;;
13927;SDS011;7036;50.834;4.718;2023-04-01T05:53:47;1.35;;;1.15;;
13927;SDS011;7036;50.834;4.718;2023-04-01T05:56:14;1.65;;;1.08;;
13927;SDS011;7036;50.834;4.718;2023-04-01T05:58:41;1.33;;;0.95;;
13927;SDS011;7036;50.834;4.718;2023-04-01T06:01:09;1.00;;;0.88;;
13927;SDS011;7036;50.834;4.718;2023-04-01T06:03:36;1.30;;;0.90;;
13927;SDS011;7036;50.834;4.718;2023-04-01T06:06:03;2.80;;;1.10;;
13927;SDS011;7036;50.834;4.718;2023-04-01T06:08:31;2.20;;;1.08;;
13927;SDS011;7036;50.834;4.718;2023-04-01T06:11:01;4.28;;;1.13;;
13927;SDS011;7036;50.834;4.718;2023-04-01T06:30:43;1.03;;;0.93;;
13927;SDS011;7036;50.834;4.718;2023-04-01T06:44:10;1.33;;;1.03;;
13927;SDS011;7036;50.834;4.718;2023-04-01T06:46:47;2.73;;;1.20;;
13927;SDS011;7036;50.834;4.718;2023-04-01T06:52:02;2.13;;;1.10;;
13927;SDS011;7036;50.834;4.718;2023-04-01T06:54:31;1.77;;;1.03;;
13927;SDS011;7036;50.834;4.718;2023-04-01T06:57:02;2.60;;;1.30;;
13927;SDS011;7036;50.834;4.718;2023-04-01T06:59:36;1.93;;;1.20;;
13927;SDS011;7036;50.834;4.718;2023-04-01T07:04:40;2.27;;;1.10;;
13927;SDS011;7036;50.834;4.718;2023-04-01T07:07:50;1.50;;;1.20;;
13927;SDS011;7036;50.834;4.718;2023-04-01T07:09:55;1.13;;;0.90;;
13927;SDS011;7036;50.834;4.718;2023-04-01T07:12:27;1.00;;;0.83;;
13927;SDS011;7036;50.834;4.718;2023-04-01T07:14:58;2.00;;;1.17;;
13927;SDS011;7036;50.834;4.718;2023-04-01T07:17:28;2.70;;;1.13;;
13927;SDS011;7036;50.834;4.718;2023-04-01T07:22:32;1.07;;;0.97;;
13927;SDS011;7036;50.834;4.718;2023-04-01T07:25:02;1.10;;;0.97;;
13927;SDS011;7036;50.834;4.718;2023-04-01T07:27:28;1.17;;;0.93;;
13927;SDS011;7036;50.834;4.718;2023-04-01T07:29:56;2.42;;;1.33;;
13927;SDS011;7036;50.834;4.718;2023-04-01T07:32:41;2.75;;;1.20;;
13927;SDS011;7036;50.834;4.718;2023-04-01T07:35:07;2.23;;;1.17;;
13927;SDS011;7036;50.834;4.718;2023-04-01T07:38:01;1.53;;;1.33;;
13927;SDS011;7036;50.834;4.718;2023-04-01T07:48:46;1.93;;;1.10;;
13927;SDS011;7036;50.834;4.718;2023-04-01T07:51:45;2.00;;;1.27;;
13927;SDS011;7036;50.834;4.718;2023-04-01T07:57:11;2.13;;;1.23;;
13927;SDS011;7036;50.834;4.718;2023-04-01T07:59:54;1.57;;;0.80;;
13927;SDS011;7036;50.834;4.718;2023-04-01T08:02:35;2.20;;;0.90;;
13927;SDS011;7036;50.834;4.718;2023-04-01T08:05:09;2.87;;;1.00;;
13927;SDS011;7036;50.834;4.718;2023-04-01T08:07:52;2.50;;;1.63;;
13927;SDS011;7036;50.834;4.718;2023-04-01T08:10:23;3.47;;;1.47;;
13927;SDS011;7036;50.834;4.718;2023-04-01T08:15:53;1.40;;;1.00;;
13927;SDS011;7036;50.834;4.718;2023-04-01T08:21:35;2.33;;;1.10;;
13927;SDS011;7036;50.834;4.718;2023-04-01T08:24:51;3.27;;;1.37;;
13927;SDS011;7036;50.834;4.718;2023-04-01T08:26:45;2.40;;;1.10;;
13927;SDS011;7036;50.834;4.718;2023-04-01T08:29:19;1.90;;;1.20;;
13927;SDS011;7036;50.834;4.718;2023-04-01T08:34:36;2.83;;;1.10;;
13927;SDS011;7036;50.834;4.718;2023-04-01T08:37:08;3.60;;;1.37;;
13927;SDS011;7036;50.834;4.718;2023-04-01T08:39:50;4.83;;;1.20;;
13927;SDS011;7036;50.834;4.718;2023-04-01T08:50:24;3.10;;;1.80;;
13927;SDS011;7036;50.834;4.718;2023-04-01T08:56:06;2.53;;;1.23;;
13927;SDS011;7036;50.834;4.718;2023-04-01T09:04:48;4.90;;;1.60;;
13927;SDS011;7036;50.834;4.718;2023-04-01T09:14:59;4.40;;;1.70;;
13927;SDS011;7036;50.834;4.718;2023-04-01T09:40:15;6.07;;;2.03;;
13927;SDS011;7036;50.834;4.718;2023-04-01T09:43:05;8.37;;;2.23;;
13927;SDS011;7036;50.834;4.718;2023-04-01T09:53:25;2.13;;;1.40;;
13927;SDS011;7036;50.834;4.718;2023-04-01T09:56:12;2.43;;;1.23;;
13927;SDS011;7036;50.834;4.718;2023-04-01T10:13:34;6.63;;;1.83;;
13927;SDS011;7036;50.834;4.718;2023-04-01T10:18:47;10.60;;;1.80;;
13927;SDS011;7036;50.834;4.718;2023-04-01T10:29:47;2.43;;;1.20;;
13927;SDS011;7036;50.834;4.718;2023-04-01T10:33:06;3.60;;;1.47;;
13927;SDS011;7036;50.834;4.718;2023-04-01T10:34:56;2.70;;;1.13;;
13927;SDS011;7036;50.834;4.718;2023-04-01T10:56:40;3.93;;;1.70;;
13927;SDS011;7036;50.834;4.718;2023-04-01T10:59:23;6.37;;;1.40;;
13927;SDS011;7036;50.834;4.718;2023-04-01T11:01:53;5.80;;;1.37;;
13927;SDS011;7036;50.834;4.718;2023-04-01T11:07:48;5.90;;;1.20;;
13927;SDS011;7036;50.834;4.718;2023-04-01T11:24:30;1.53;;;1.03;;
13927;SDS011;7036;50.834;4.718;2023-04-01T11:30:05;4.17;;;1.40;;
13927;SDS011;7036;50.834;4.718;2023-04-01T11:33:26;2.30;;;0.93;;
13927;SDS011;7036;50.834;4.718;2023-04-01T11:40:29;1.88;;;1.00;;
13927;SDS011;7036;50.834;4.718;2023-04-01T11:43:16;2.83;;;1.10;;
13927;SDS011;7036;50.834;4.718;2023-04-01T11:45:49;1.57;;;0.60;;
13927;SDS011;7036;50.834;4.718;2023-04-01T11:48:29;2.27;;;1.03;;
13927;SDS011;7036;50.834;4.718;2023-04-01T11:59:42;1.60;;;0.70;;
13927;SDS011;7036;50.834;4.718;2023-04-01T12:02:23;1.63;;;0.70;;
13927;SDS011;7036;50.834;4.718;2023-04-01T12:10:21;2.03;;;0.70;;
13927;SDS011;7036;50.834;4.718;2023-04-01T12:27:22;1.57;;;0.60;;
13927;SDS011;7036;50.834;4.718;2023-04-01T12:29:21;1.63;;;1.03;;
13927;SDS011;7036;50.834;4.718;2023-04-01T12:37:35;1.40;;;1.00;;
13927;SDS011;7036;50.834;4.718;2023-04-01T12:42:44;0.80;;;0.60;;
13927;SDS011;7036;50.834;4.718;2023-04-01T12:45:28;1.27;;;0.70;;
13927;SDS011;7036;50.834;4.718;2023-04-01T12:55:51;1.93;;;0.63;;
13927;SDS011;7036;50.834;4.718;2023-04-01T12:58:41;1.05;;;0.63;;
13927;SDS011;7036;50.834;4.718;2023-04-01T13:14:29;1.47;;;0.90;;
13927;SDS011;7036;50.834;4.718;2023-04-01T13:17:13;2.23;;;0.80;;
13927;SDS011;7036;50.834;4.718;2023-04-01T13:19:54;2.30;;;0.60;;
13927;SDS011;7036;50.834;4.718;2023-04-01T13:27:50;3.00;;;0.80;;
13927;SDS011;7036;50.834;4.718;2023-04-01T13:30:33;1.30;;;0.80;;
13927;SDS011;7036;50.834;4.718;2023-04-01T13:44:38;1.67;;;0.93;;
13927;SDS011;7036;50.834;4.718;2023-04-01T13:52:38;1.27;;;0.90;;
13927;SDS011;7036;50.834;4.718;2023-04-01T13:55:08;1.30;;;0.50;;
13927;SDS011;7036;50.834;4.718;2023-04-01T14:05:35;1.10;;;0.77;;
13927;SDS011;7036;50.834;4.718;2023-04-01T14:08:26;0.80;;;0.47;;
13927;SDS011;7036;50.834;4.718;2023-04-01T14:13:41;3.43;;;0.80;;
13927;SDS011;7036;50.834;4.718;2023-04-01T14:19:20;2.40;;;0.80;;
13927;SDS011;7036;50.834;4.718;2023-04-01T14:21:56;1.07;;;0.60;;
13927;SDS011;7036;50.834;4.718;2023-04-01T14:24:32;0.87;;;0.60;;
13927;SDS011;7036;50.834;4.718;2023-04-01T14:29:47;0.73;;;0.67;;
13927;SDS011;7036;50.834;4.718;2023-04-01T14:33:12;0.67;;;0.60;;
13927;SDS011;7036;50.834;4.718;2023-04-01T14:35:22;0.50;;;0.50;;
13927;SDS011;7036;50.834;4.718;2023-04-01T14:40:33;3.23;;;0.73;;
13927;SDS011;7036;50.834;4.718;2023-04-01T14:43:14;0.47;;;0.40;;
13927;SDS011;7036;50.834;4.718;2023-04-01T14:46:00;1.33;;;0.63;;
13927;SDS011;7036;50.834;4.718;2023-04-01T14:51:29;1.40;;;0.50;;
13927;SDS011;7036;50.834;4.718;2023-04-01T14:56:43;0.70;;;0.60;;
13927;SDS011;7036;50.834;4.718;2023-04-01T14:59:10;1.17;;;0.50;;
13927;SDS011;7036;50.834;4.718;2023-04-01T15:01:50;2.67;;;0.70;;
13927;SDS011;7036;50.834;4.718;2023-04-01T15:04:30;0.60;;;0.60;;
13927;SDS011;7036;50.834;4.718;2023-04-01T15:14:44;0.30;;;0.30;;
13927;SDS011;7036;50.834;4.718;2023-04-01T15:22:43;1.40;;;0.57;;
13927;SDS011;7036;50.834;4.718;2023-04-01T15:27:37;1.85;;;0.77;;
13927;SDS011;7036;50.834;4.718;2023-04-01T15:35:49;1.90;;;0.63;;
13927;SDS011;7036;50.834;4.718;2023-04-01T15:41:43;0.65;;;0.65;;
13927;SDS011;7036;50.834;4.718;2023-04-01T15:43:45;2.63;;;0.77;;
13927;SDS011;7036;50.834;4.718;2023-04-01T15:49:02;0.70;;;0.53;;
13927;SDS011;7036;50.834;4.718;2023-04-01T15:54:20;2.00;;;0.60;;
13927;SDS011;7036;50.834;4.718;2023-04-01T15:56:50;1.58;;;0.65;;
13927;SDS011;7036;50.834;4.718;2023-04-01T16:04:37;1.50;;;0.50;;
13927;SDS011;7036;50.834;4.718;2023-04-01T16:12:15;1.37;;;0.80;;
13927;SDS011;7036;50.834;4.718;2023-04-01T16:22:45;0.77;;;0.60;;
13927;SDS011;7036;50.834;4.718;2023-04-01T16:25:20;1.83;;;0.70;;
13927;SDS011;7036;50.834;4.718;2023-04-01T16:27:50;1.37;;;0.80;;
13927;SDS011;7036;50.834;4.718;2023-04-01T16:30:40;1.93;;;0.43;;
13927;SDS011;7036;50.834;4.718;2023-04-01T16:33:21;0.93;;;0.60;;
13927;SDS011;7036;50.834;4.718;2023-04-01T16:36:10;0.83;;;0.63;;
13927;SDS011;7036;50.834;4.718;2023-04-01T16:42:09;1.07;;;0.70;;
13927;SDS011;7036;50.834;4.718;2023-04-01T16:44:26;0.83;;;0.83;;
13927;SDS011;7036;50.834;4.718;2023-04-01T16:46:57;0.50;;;0.50;;
13927;SDS011;7036;50.834;4.718;2023-04-01T16:54:28;1.17;;;0.77;;
13927;SDS011;7036;50.834;4.718;2023-04-01T17:02:18;0.47;;;0.47;;
13927;SDS011;7036;50.834;4.718;2023-04-01T17:07:34;1.13;;;0.80;;
13927;SDS011;7036;50.834;4.718;2023-04-01T17:10:33;0.87;;;0.50;;
13927;SDS011;7036;50.834;4.718;2023-04-01T17:26:51;3.03;;;0.60;;
13927;SDS011;7036;50.834;4.718;2023-04-01T17:32:36;0.50;;;0.50;;
13927;SDS011;7036;50.834;4.718;2023-04-01T17:35:12;1.90;;;0.60;;
13927;SDS011;7036;50.834;4.718;2023-04-01T17:42:58;0.70;;;0.57;;
13927;SDS011;7036;50.834;4.718;2023-04-01T17:45:28;1.97;;;0.63;;
13927;SDS011;7036;50.834;4.718;2023-04-01T17:53:25;1.60;;;0.70;;
13927;SDS011;7036;50.834;4.718;2023-04-01T17:56:14;0.97;;;0.80;;
13927;SDS011;7036;50.834;4.718;2023-04-01T18:01:19;0.20;;;0.20;;
13927;SDS011;7036;50.834;4.718;2023-04-01T18:06:33;0.60;;;0.60;;
13927;SDS011;7036;50.834;4.718;2023-04-01T18:17:04;2.20;;;0.87;;
13927;SDS011;7036;50.834;4.718;2023-04-01T18:19:59;1.80;;;1.00;;
13927;SDS011;7036;50.834;4.718;2023-04-01T18:22:28;1.13;;;0.60;;
13927;SDS011;7036;50.834;4.718;2023-04-01T18:25:15;2.67;;;0.97;;
13927;SDS011;7036;50.834;4.718;2023-04-01T18:27:44;1.10;;;0.50;;
13927;SDS011;7036;50.834;4.718;2023-04-01T18:30:12;0.70;;;0.60;;
13927;SDS011;7036;50.834;4.718;2023-04-01T18:32:56;1.03;;;0.80;;
13927;SDS011;7036;50.834;4.718;2023-04-01T18:38:33;4.07;;;0.93;;
13927;SDS011;7036;50.834;4.718;2023-04-01T18:43:48;0.80;;;0.57;;
13927;SDS011;7036;50.834;4.718;2023-04-01T18:49:48;1.83;;;1.23;;
13927;SDS011;7036;50.834;4.718;2023-04-01T18:57:01;4.50;;;1.67;;
13927;SDS011;7036;50.834;4.718;2023-04-01T19:04:47;4.80;;;1.30;;
13927;SDS011;7036;50.834;4.718;2023-04-01T19:09:51;6.30;;;1.60;;
13927;SDS011;7036;50.834;4.718;2023-04-01T19:12:22;3.78;;;1.30;;
13927;SDS011;7036;50.834;4.718;2023-04-01T19:26:03;3.73;;;1.33;;
13927;SDS011;7036;50.834;4.718;2023-04-01T19:34:22;4.53;;;1.50;;
13927;SDS011;7036;50.834;4.718;2023-04-01T19:47:49;2.73;;;1.33;;
13927;SDS011;7036;50.834;4.718;2023-04-01T19:50:21;3.30;;;1.10;;
13927;SDS011;7036;50.834;4.718;2023-04-01T19:52:44;4.90;;;1.33;;
13927;SDS011;7036;50.834;4.718;2023-04-01T19:57:51;4.20;;;1.30;;
13927;SDS011;7036;50.834;4.718;2023-04-01T20:00:51;3.03;;;1.33;;
13927;SDS011;7036;50.834;4.718;2023-04-01T20:06:24;2.10;;;1.23;;
13927;SDS011;7036;50.834;4.718;2023-04-01T20:08:49;9.93;;;1.40;;
13927;SDS011;7036;50.834;4.718;2023-04-01T20:11:25;2.70;;;1.60;;
13927;SDS011;7036;50.834;4.718;2023-04-01T20:16:16;3.75;;;1.50;;
13927;SDS011;7036;50.834;4.718;2023-04-01T20:18:55;2.65;;;1.42;;
13927;SDS011;7036;50.834;4.718;2023-04-01T20:21:34;2.73;;;1.50;;
13927;SDS011;7036;50.834;4.718;2023-04-01T20:26:45;17.13;;;1.70;;
13927;SDS011;7036;50.834;4.718;2023-04-01T20:34:41;2.37;;;1.33;;
13927;SDS011;7036;50.834;4.718;2023-04-01T20:50:58;4.80;;;1.60;;
13927;SDS011;7036;50.834;4.718;2023-04-01T20:58:35;2.40;;;1.20;;
13927;SDS011;7036;50.834;4.718;2023-04-01T21:04:09;2.93;;;1.03;;
13927;SDS011;7036;50.834;4.718;2023-04-01T21:06:50;2.67;;;1.30;;
13927;SDS011;7036;50.834;4.718;2023-04-01T21:17:58;5.23;;;1.50;;
13927;SDS011;7036;50.834;4.718;2023-04-01T21:23:29;2.43;;;0.87;;
13927;SDS011;7036;50.834;4.718;2023-04-01T21:28:33;4.40;;;1.57;;
13927;SDS011;7036;50.834;4.718;2023-04-01T21:33:54;2.60;;;1.30;;
13927;SDS011;7036;50.834;4.718;2023-04-01T21:42:07;3.73;;;1.50;;
13927;SDS011;7036;50.834;4.718;2023-04-01T21:53:18;2.50;;;1.60;;
13927;SDS011;7036;50.834;4.718;2023-04-01T22:07:45;1.33;;;1.23;;
13927;SDS011;7036;50.834;4.718;2023-04-01T22:17:54;2.40;;;1.30;;
13927;SDS011;7036;50.834;4.718;2023-04-01T22:20:25;3.47;;;1.67;;
13927;SDS011;7036;50.834;4.718;2023-04-01T22:23:10;3.07;;;1.33;;
13927;SDS011;7036;50.834;4.718;2023-04-01T22:30:51;1.97;;;1.40;;
13927;SDS011;7036;50.834;4.718;2023-04-01T22:35:59;2.00;;;1.50;;
13927;SDS011;7036;50.834;4.718;2023-04-01T22:41:15;2.03;;;1.63;;
13927;SDS011;7036;50.834;4.718;2023-04-01T22:43:43;1.60;;;1.50;;
13927;SDS011;7036;50.834;4.718;2023-04-01T22:46:22;2.72;;;1.63;;
13927;SDS011;7036;50.834;4.718;2023-04-01T22:51:41;1.73;;;1.63;;
13927;SDS011;7036;50.834;4.718;2023-04-01T22:54:15;1.37;;;1.27;;
13927;SDS011;7036;50.834;4.718;2023-04-01T22:57:05;4.03;;;1.67;;
13927;SDS011;7036;50.834;4.718;2023-04-01T23:01:59;1.40;;;1.30;;
13927;SDS011;7036;50.834;4.718;2023-04-01T23:04:29;3.47;;;1.60;;
13927;SDS011;7036;50.834;4.718;2023-04-01T23:06:58;1.75;;;1.65;;
13927;SDS011;7036;50.834;4.718;2023-04-01T23:09:39;1.90;;;1.70;;
13927;SDS011;7036;50.834;4.718;2023-04-01T23:11:58;1.70;;;1.60;;
13927;SDS011;7036;50.834;4.718;2023-04-01T23:14:41;2.03;;;1.70;;
13927;SDS011;7036;50.834;4.718;2023-04-01T23:17:17;1.60;;;1.50;;
13927;SDS011;7036;50.834;4.718;2023-04-01T23:20:15;3.03;;;1.90;;
13927;SDS011;7036;50.834;4.718;2023-04-01T23:23:00;1.50;;;1.40;;
13927;SDS011;7036;50.834;4.718;2023-04-01T23:25:30;2.50;;;1.33;;
13927;SDS011;7036;50.834;4.718;2023-04-01T23:33:10;1.60;;;1.50;;
13927;SDS011;7036;50.834;4.718;2023-04-01T23:35:52;2.43;;;1.50;;
13927;SDS011;7036;50.834;4.718;2023-04-01T23:38:21;1.97;;;1.80;;
13927;SDS011;7036;50.834;4.718;2023-04-01T23:40:47;1.88;;;1.77;;
13927;SDS011;7036;50.834;4.718;2023-04-01T23:45:55;3.37;;;1.87;;
13927;SDS011;7036;50.834;4.718;2023-04-01T23:48:24;2.80;;;2.03;;
13927;SDS011;7036;50.834;4.718;2023-04-01T23:50:48;2.15;;;1.77;;
13927;SDS011;7036;50.834;4.718;2023-04-01T23:53:20;1.88;;;1.70;;
13927;SDS011;7036;50.834;4.718;2023-04-01T23:55:45;2.00;;;1.80;;
13927;SDS011;7036;50.834;4.718;2023-04-01T23:58:23;2.38;;;1.95;;
